Main page
METAR-TAF:

METAR-TAF

Airports :

Roland Garros Airport

Saint-Denis, Réunion

latitude: 20-53S, longitude: 055-31E, elevation: 21 m

Current weather observation

The report was made 45 minutes ago, at 01:00 UTC
Wind 5 kt from the South
Temperature 22°C
Humidity 88%
Pressure 1014 hPa
Visibility 10 km or more
no clouds below 1500 m and no cumulonimbus

METAR: FMEE 230100Z AUTO 19005KT CAVOK 22/20 Q1014 NOSIG

Time: 05:45 (01:45 UTC)

Forecast

The report was made 2 hours and 45 minutes ago, at 23:00 UTC
Forecast valid from 23 at 00 UTC to 24 at 06 UTC
Wind 8 kt from the South
Visibility 10 km or more
Few clouds at a height of 2000 ft
Becoming
from 23 at 04 UTC to 23 at 06 UTC
Wind 10 kt from the East/Northeast
Becoming
from 23 at 15 UTC to 23 at 16 UTC
Wind 10 kt from the Southeast

TAF: FMEE 222300Z 2300/2406 18008KT 9999 FEW020 BECMG 2304/2306 06010KT BECMG 2315/2316 14010KT

Weather observations and forecasts of more than 4000 airports (METAR and TAF reports).

The available stations are represented by yellow and red dots on the map.

Hover mouse over dot to see the name of the station.

Then click to see weather observations and forecasts.

To change the map : click on the green buttons with a black cross to zoom in, on the green button with a dash to zoom out, or on the green arrows for adjacent maps.


METAR-TAF: